createdAt,value
2023-07-27T00:04:17.505Z,1.55
2023-07-27T00:09:10.834Z,1.60
2023-07-27T00:14:04.199Z,1.50
2023-07-27T00:18:57.515Z,1.58
2023-07-27T00:23:52.229Z,1.20
2023-07-27T00:28:45.592Z,1.73
2023-07-27T00:33:38.930Z,1.67
2023-07-27T00:38:32.291Z,1.65
2023-07-27T00:43:27.020Z,1.75
2023-07-27T00:48:21.239Z,1.55
2023-07-27T00:53:16.975Z,1.67
2023-07-27T00:58:10.940Z,1.60
2023-07-27T01:03:06.687Z,1.53
2023-07-27T01:08:00.042Z,1.50
2023-07-27T01:13:04.937Z,1.47
2023-07-27T01:18:09.696Z,2.77
2023-07-27T01:23:40.417Z,2.05
2023-07-27T01:28:59.817Z,1.73
2023-07-27T01:34:02.079Z,1.60
2023-07-27T01:39:01.251Z,1.50
2023-07-27T01:43:55.545Z,1.70
2023-07-27T01:48:52.284Z,1.50
2023-07-27T01:53:50.122Z,1.73
2023-07-27T01:58:44.774Z,1.60
2023-07-27T02:03:38.816Z,1.60
2023-07-27T02:08:32.269Z,1.40
2023-07-27T02:13:35.515Z,1.50
2023-07-27T02:18:32.096Z,1.57
2023-07-27T02:23:26.522Z,1.37
2023-07-27T02:28:19.795Z,1.40
2023-07-27T02:33:14.501Z,1.30
2023-07-27T02:38:07.797Z,1.40
2023-07-27T02:43:01.169Z,1.90
2023-07-27T02:47:54.478Z,1.70
2023-07-27T02:52:49.225Z,1.50
2023-07-27T02:57:42.531Z,1.80
2023-07-27T03:02:35.952Z,1.83
2023-07-27T03:07:29.378Z,1.70
2023-07-27T03:12:24.062Z,1.88
2023-07-27T03:17:17.451Z,1.77
2023-07-27T03:22:10.782Z,1.40
2023-07-27T03:27:04.151Z,2.03
2023-07-27T03:31:58.759Z,1.70
2023-07-27T03:36:52.039Z,3.07
2023-07-27T03:41:45.428Z,2.27
2023-07-27T03:46:38.796Z,2.23
2023-07-27T03:51:33.451Z,2.10
2023-07-27T03:56:26.792Z,1.70
2023-07-27T04:01:20.676Z,1.60
2023-07-27T04:06:13.965Z,1.80
2023-07-27T04:11:08.647Z,1.60
2023-07-27T04:16:01.965Z,1.80
2023-07-27T04:20:55.325Z,1.93
2023-07-27T04:25:48.590Z,1.93
2023-07-27T04:30:43.454Z,2.00
2023-07-27T04:35:36.751Z,1.90
2023-07-27T04:40:30.078Z,2.07
2023-07-27T04:45:23.423Z,1.63
2023-07-27T04:50:18.276Z,1.60
2023-07-27T04:55:11.560Z,2.07
2023-07-27T05:00:06.193Z,1.73
2023-07-27T05:04:59.521Z,2.17
2023-07-27T05:09:54.399Z,2.13
2023-07-27T05:14:47.692Z,2.37
2023-07-27T05:19:41.065Z,1.93
2023-07-27T05:24:34.476Z,2.33
2023-07-27T05:29:29.211Z,2.03
2023-07-27T05:34:22.484Z,2.17
2023-07-27T05:39:15.836Z,2.10
2023-07-27T05:44:09.290Z,2.38
2023-07-27T05:49:06.978Z,2.30
2023-07-27T05:54:01.733Z,2.40
2023-07-27T05:58:55.092Z,2.03
2023-07-27T06:04:05.340Z,2.20
2023-07-27T06:09:01.811Z,2.03
2023-07-27T06:13:55.134Z,2.22
2023-07-27T06:18:48.734Z,2.58
2023-07-27T06:23:42.064Z,2.60
2023-07-27T06:28:37.444Z,2.35
2023-07-27T06:33:30.962Z,2.33
2023-07-27T06:38:24.399Z,2.70
2023-07-27T06:43:17.744Z,3.05
2023-07-27T06:48:12.656Z,2.97
2023-07-27T06:53:06.105Z,2.85
2023-07-27T06:57:59.407Z,2.10
2023-07-27T07:02:52.983Z,2.55
2023-07-27T07:07:47.840Z,2.38
2023-07-27T07:12:41.296Z,3.30
2023-07-27T07:17:34.925Z,3.38
2023-07-27T07:22:28.339Z,3.30
2023-07-27T07:27:23.083Z,2.55
2023-07-27T07:32:16.427Z,3.30
2023-07-27T07:37:23.028Z,3.45
2023-07-27T07:42:16.437Z,3.10
2023-07-27T07:47:11.203Z,3.40
2023-07-27T07:52:04.792Z,2.60
2023-07-27T07:56:58.417Z,2.75
2023-07-27T08:01:52.006Z,2.97
2023-07-27T08:06:47.066Z,2.88
2023-07-27T08:11:42.680Z,2.88
2023-07-27T08:16:36.640Z,2.88
2023-07-27T08:21:30.738Z,2.90
2023-07-27T08:26:26.866Z,2.60
2023-07-27T08:31:20.295Z,2.70
2023-07-27T08:36:13.676Z,2.33
2023-07-27T08:41:07.090Z,2.60
2023-07-27T08:46:02.203Z,2.90
2023-07-27T08:50:56.823Z,2.35
2023-07-27T08:55:50.247Z,2.85
2023-07-27T09:00:44.015Z,2.63
2023-07-27T09:05:44.007Z,2.65
2023-07-27T09:10:38.443Z,2.35
2023-07-27T09:15:32.313Z,2.63
2023-07-27T09:20:25.685Z,2.58
2023-07-27T09:25:23.570Z,2.35
2023-07-27T09:30:19.442Z,2.00
2023-07-27T09:35:15.818Z,2.03
2023-07-27T09:40:11.951Z,3.10
2023-07-27T09:45:08.135Z,2.47
2023-07-27T09:50:02.040Z,2.40
2023-07-27T09:54:58.387Z,2.22
2023-07-27T09:59:53.720Z,2.00
2023-07-27T10:04:51.115Z,2.10
2023-07-27T10:09:44.608Z,2.13
2023-07-27T10:14:41.837Z,2.42
2023-07-27T10:19:43.369Z,2.53
2023-07-27T10:24:51.489Z,1.90
2023-07-27T10:29:50.225Z,2.40
2023-07-27T10:34:43.673Z,1.63
2023-07-27T10:39:45.828Z,2.10
2023-07-27T10:44:47.802Z,1.58
2023-07-27T10:49:42.927Z,1.73
2023-07-27T10:54:42.097Z,1.48
2023-07-27T10:59:40.468Z,1.73
2023-07-27T11:04:36.971Z,1.80
2023-07-27T11:09:30.309Z,1.75
2023-07-27T11:14:23.629Z,1.70
2023-07-27T11:19:17.249Z,1.70
2023-07-27T11:24:12.328Z,1.67
2023-07-27T11:29:05.878Z,1.80
2023-07-27T11:34:00.921Z,2.00
2023-07-27T11:38:54.342Z,1.67
2023-07-27T11:43:53.460Z,1.80
2023-07-27T11:48:50.700Z,1.65
2023-07-27T11:53:55.301Z,1.70
2023-07-27T11:58:50.054Z,2.13
2023-07-27T12:03:47.013Z,2.20
2023-07-27T12:23:33.291Z,1.98
2023-07-27T12:43:14.812Z,2.28
2023-07-27T12:48:08.782Z,2.00
2023-07-27T12:53:02.284Z,1.70
2023-07-27T12:57:57.061Z,2.03
2023-07-27T13:02:50.420Z,2.22
2023-07-27T13:07:45.751Z,1.77
2023-07-27T13:12:39.212Z,1.65
2023-07-27T13:17:35.054Z,1.70
2023-07-27T13:22:28.592Z,1.90
2023-07-27T13:27:23.118Z,1.60
2023-07-27T13:32:16.466Z,1.70
2023-07-27T13:37:11.176Z,1.95
2023-07-27T13:42:04.759Z,2.08
2023-07-27T13:46:58.062Z,2.58
2023-07-27T13:51:51.551Z,2.15
2023-07-27T13:56:46.209Z,2.00
2023-07-27T14:01:39.712Z,1.98
2023-07-27T14:06:33.184Z,1.77
2023-07-27T14:11:26.678Z,1.70
2023-07-27T14:16:24.617Z,1.67
2023-07-27T14:21:18.007Z,2.13
2023-07-27T14:26:12.710Z,1.63
2023-07-27T14:31:13.547Z,2.03
2023-07-27T14:36:08.914Z,2.17
2023-07-27T14:41:02.255Z,2.03
2023-07-27T14:45:55.657Z,2.22
2023-07-27T14:50:49.466Z,1.92
2023-07-27T14:55:46.223Z,2.20
2023-07-27T15:00:39.738Z,1.85
2023-07-27T15:05:33.302Z,1.98
2023-07-27T15:10:32.024Z,2.15
2023-07-27T15:15:28.013Z,2.00
2023-07-27T15:20:21.771Z,2.30
2023-07-27T15:25:15.162Z,2.00
2023-07-27T15:30:09.708Z,2.03
2023-07-27T15:35:04.759Z,2.30
2023-07-27T15:39:58.046Z,2.05
2023-07-27T15:44:51.479Z,2.28
2023-07-27T15:49:44.818Z,2.10
2023-07-27T15:54:39.431Z,2.10
2023-07-27T15:59:32.790Z,1.83
2023-07-27T16:04:26.115Z,2.30
2023-07-27T16:09:21.241Z,2.30
2023-07-27T16:14:15.968Z,2.20
2023-07-27T16:19:09.309Z,2.00
2023-07-27T16:24:04.107Z,1.90
2023-07-27T16:28:57.705Z,2.63
2023-07-27T16:33:52.429Z,2.00
2023-07-27T16:38:45.725Z,2.05
2023-07-27T16:43:39.315Z,2.10
2023-07-27T16:48:32.873Z,2.33
2023-07-27T16:53:28.253Z,2.35
2023-07-27T16:58:22.280Z,2.17
2023-07-27T17:03:15.677Z,1.77
2023-07-27T17:08:12.387Z,2.17
2023-07-27T17:13:07.118Z,2.00
2023-07-27T17:18:00.526Z,1.90
2023-07-27T17:22:53.905Z,2.00
2023-07-27T17:27:47.517Z,1.98
2023-07-27T17:32:43.024Z,1.90
2023-07-27T17:37:36.539Z,2.60
2023-07-27T17:42:29.852Z,2.50
2023-07-27T17:47:23.132Z,2.30
2023-07-27T17:52:17.816Z,2.40
2023-07-27T17:57:11.104Z,2.40
2023-07-27T18:02:07.602Z,2.10
2023-07-27T18:07:01.068Z,2.63
2023-07-27T18:11:55.803Z,2.30
2023-07-27T18:16:49.115Z,2.40
2023-07-27T18:21:42.425Z,2.30
2023-07-27T18:26:35.865Z,2.55
2023-07-27T18:31:30.611Z,2.53
2023-07-27T18:36:24.074Z,2.15
2023-07-27T18:41:18.305Z,2.10
2023-07-27T18:46:12.084Z,3.70
2023-07-27T18:51:06.828Z,2.72
2023-07-27T18:56:00.232Z,2.63
2023-07-27T19:00:53.799Z,2.58
2023-07-27T19:05:47.295Z,3.03
2023-07-27T19:10:42.069Z,3.53
2023-07-27T19:15:35.530Z,3.97
2023-07-27T19:20:28.990Z,3.58
2023-07-27T19:25:22.628Z,3.85
2023-07-27T19:30:18.927Z,3.78
2023-07-27T19:35:12.632Z,3.58
2023-07-27T19:40:07.142Z,4.57
2023-07-27T19:45:00.462Z,4.93
2023-07-27T19:50:05.126Z,4.55
2023-07-27T19:54:59.246Z,4.18
2023-07-27T19:59:56.030Z,3.83
2023-07-27T20:04:51.507Z,3.58
2023-07-27T20:09:46.199Z,3.30
2023-07-27T20:14:39.506Z,3.30
2023-07-27T20:19:35.861Z,3.17
2023-07-27T20:24:31.793Z,3.20
2023-07-27T20:29:33.757Z,3.85
2023-07-27T20:34:27.353Z,3.03
2023-07-27T20:39:22.560Z,3.22
2023-07-27T20:44:15.801Z,3.25
2023-07-27T20:49:10.524Z,3.40
2023-07-27T20:54:03.768Z,3.22
2023-07-27T20:58:58.529Z,3.70
2023-07-27T21:03:51.823Z,3.75
2023-07-27T21:08:46.497Z,3.45
2023-07-27T21:13:39.790Z,3.63
2023-07-27T21:18:33.731Z,3.40
2023-07-27T21:23:27.433Z,3.15
2023-07-27T21:28:22.283Z,3.38
2023-07-27T21:33:27.340Z,3.10
2023-07-27T21:38:21.579Z,2.88
2023-07-27T21:43:14.989Z,3.28
2023-07-27T21:48:10.016Z,3.17
2023-07-27T21:53:03.283Z,3.10
2023-07-27T21:57:58.439Z,2.67
2023-07-27T22:02:51.744Z,2.90
2023-07-27T22:07:46.559Z,3.15
2023-07-27T22:12:39.954Z,3.10
2023-07-27T22:17:33.266Z,3.55
2023-07-27T22:22:26.633Z,2.95
2023-07-27T22:27:21.348Z,2.90
2023-07-27T22:32:14.766Z,2.67
2023-07-27T22:37:08.217Z,3.40
2023-07-27T22:42:01.535Z,3.25
2023-07-27T22:46:56.226Z,2.78
2023-07-27T22:51:49.563Z,4.03
2023-07-27T22:56:42.888Z,4.32
2023-07-27T23:01:36.247Z,4.30
2023-07-27T23:06:31.475Z,3.35
2023-07-27T23:11:24.961Z,4.20
2023-07-27T23:16:18.248Z,3.63
2023-07-27T23:21:11.588Z,3.42
2023-07-27T23:26:06.270Z,3.38
2023-07-27T23:31:00.325Z,3.05
2023-07-27T23:35:53.765Z,3.47
2023-07-27T23:40:47.055Z,2.95
2023-07-27T23:45:41.779Z,2.95
2023-07-27T23:50:35.127Z,2.67
2023-07-27T23:55:28.488Z,3.00
